createdAt,value
2019-02-20T00:02:22.708Z,21.15
2019-02-20T00:04:53.152Z,12.37
2019-02-20T00:07:23.791Z,13.48
2019-02-20T00:09:54.644Z,16.57
2019-02-20T00:12:25.399Z,15.68
2019-02-20T00:14:56.169Z,17.95
2019-02-20T00:17:26.805Z,15.65
2019-02-20T00:19:57.689Z,11.15
2019-02-20T00:22:28.435Z,17.02
2019-02-20T00:24:59.184Z,15.90
2019-02-20T00:27:29.842Z,20.75
2019-02-20T00:30:00.691Z,13.85
2019-02-20T00:32:31.448Z,20.50
2019-02-20T00:35:02.202Z,15.15
2019-02-20T00:37:33.959Z,16.77
2019-02-20T00:40:06.467Z,14.38
2019-02-20T00:42:36.902Z,14.23
2019-02-20T00:45:30.359Z,16.20
2019-02-20T00:48:08.703Z,14.93
2019-02-20T00:50:40.986Z,18.67
2019-02-20T00:53:22.274Z,15.45
2019-02-20T00:55:53.038Z,15.65
2019-02-20T00:58:23.881Z,21.15
2019-02-20T01:00:54.620Z,21.23
2019-02-20T01:03:25.296Z,20.27
2019-02-20T01:05:56.128Z,18.35
2019-02-20T01:08:26.900Z,17.80
2019-02-20T01:10:57.655Z,36.03
2019-02-20T01:13:28.510Z,40.40
2019-02-20T01:15:59.372Z,40.12
2019-02-20T01:18:30.247Z,40.20
2019-02-20T01:21:01.060Z,27.48
2019-02-20T01:23:31.932Z,22.58
2019-02-20T01:26:02.685Z,21.00
2019-02-20T01:28:33.342Z,19.98
2019-02-20T01:31:04.194Z,18.62
2019-02-20T01:33:34.948Z,19.48
2019-02-20T01:36:05.703Z,26.15
2019-02-20T01:38:37.478Z,19.87
2019-02-20T01:41:07.908Z,22.10
2019-02-20T01:43:38.782Z,26.30
2019-02-20T01:46:09.725Z,24.92
2019-02-20T01:48:40.494Z,23.70
2019-02-20T01:51:11.336Z,24.05
2019-02-20T01:53:42.205Z,19.17
2019-02-20T01:56:12.943Z,29.65
2019-02-20T01:58:43.613Z,34.13
2019-02-20T02:01:14.469Z,22.22
2019-02-20T02:03:45.103Z,23.87
2019-02-20T02:06:15.856Z,23.70
2019-02-20T02:08:46.525Z,31.00
2019-02-20T02:11:17.367Z,37.75
2019-02-20T02:13:48.135Z,33.00
2019-02-20T02:16:18.890Z,30.60
2019-02-20T02:18:49.744Z,42.25
2019-02-20T02:21:20.585Z,37.25
2019-02-20T02:23:51.362Z,40.12
2019-02-20T02:26:22.008Z,34.78
2019-02-20T02:31:22.288Z,36.00
2019-02-20T02:36:22.778Z,26.77
2019-02-20T02:38:54.550Z,27.93
2019-02-20T02:41:25.302Z,27.95
2019-02-20T02:43:55.962Z,27.48
2019-02-20T02:46:27.629Z,25.72
2019-02-20T02:48:58.379Z,31.95
2019-02-20T02:51:29.123Z,32.83
2019-02-20T02:53:59.873Z,37.60
2019-02-20T02:56:30.542Z,41.18
2019-02-20T02:59:01.279Z,49.18
2019-02-20T03:01:32.137Z,45.60
2019-02-20T03:04:02.912Z,45.05
2019-02-20T03:06:33.559Z,52.70
2019-02-20T03:09:05.215Z,52.85
2019-02-20T03:11:35.679Z,50.80
2019-02-20T03:14:06.541Z,49.25
2019-02-20T03:16:37.390Z,45.38
2019-02-20T03:19:08.146Z,46.00
2019-02-20T03:21:38.801Z,51.28
2019-02-20T03:24:09.633Z,46.58
2019-02-20T03:26:40.289Z,48.40
2019-02-20T03:29:11.061Z,56.35
2019-02-20T03:31:41.710Z,50.75
2019-02-20T03:34:12.453Z,57.53
2019-02-20T03:36:43.217Z,52.05
2019-02-20T03:39:14.996Z,57.20
2019-02-20T03:41:45.757Z,58.02
2019-02-20T03:44:16.380Z,59.33
2019-02-20T03:46:47.247Z,56.25
2019-02-20T03:49:18.009Z,56.95
2019-02-20T03:51:48.745Z,47.90
2019-02-20T03:54:19.413Z,59.27
2019-02-20T03:56:50.257Z,61.35
2019-02-20T03:59:21.031Z,54.05
2019-02-20T04:01:51.778Z,43.78
2019-02-20T04:04:22.634Z,50.73
2019-02-20T04:06:53.491Z,53.35
2019-02-20T04:09:24.247Z,49.85
2019-02-20T04:11:54.904Z,41.02
2019-02-20T04:14:25.751Z,38.33
2019-02-20T04:16:56.508Z,36.93
2019-02-20T04:19:27.258Z,41.13
2019-02-20T04:21:58.100Z,35.08
2019-02-20T04:24:28.975Z,29.45
2019-02-20T04:26:59.715Z,32.13
2019-02-20T04:29:30.376Z,27.60
2019-02-20T04:32:01.240Z,31.57
2019-02-20T04:34:31.987Z,35.10
2019-02-20T04:37:02.724Z,35.75
2019-02-20T04:39:34.317Z,36.17
2019-02-20T04:42:05.052Z,35.92
2019-02-20T04:44:35.720Z,34.15
2019-02-20T04:47:06.662Z,28.47
2019-02-20T04:49:37.318Z,37.45
2019-02-20T04:52:08.084Z,30.37
2019-02-20T04:54:38.940Z,33.25
2019-02-20T04:57:09.796Z,41.92
2019-02-20T04:59:40.429Z,41.53
2019-02-20T05:04:41.017Z,40.70
2019-02-20T05:07:11.687Z,35.08
2019-02-20T05:09:42.544Z,33.33
2019-02-20T05:12:14.731Z,44.33
2019-02-20T05:14:45.479Z,38.48
2019-02-20T05:17:16.132Z,28.55
2019-02-20T05:19:46.996Z,43.05
2019-02-20T05:22:17.843Z,61.85
2019-02-20T05:24:48.480Z,57.58
2019-02-20T05:29:49.187Z,44.88
2019-02-20T05:34:49.656Z,45.83
2019-02-20T05:37:20.410Z,47.53
2019-02-20T05:39:52.197Z,47.60
2019-02-20T05:42:22.637Z,47.30
2019-02-20T05:44:53.282Z,44.05
2019-02-20T05:47:24.345Z,47.23
2019-02-20T05:49:55.112Z,45.05
2019-02-20T05:52:25.870Z,43.83
2019-02-20T05:54:56.520Z,50.30
2019-02-20T05:57:27.400Z,40.85
2019-02-20T05:59:58.230Z,46.80
2019-02-20T06:02:29.091Z,45.35
2019-02-20T06:04:59.950Z,52.70
2019-02-20T06:07:30.700Z,52.43
2019-02-20T06:10:01.453Z,49.20
2019-02-20T06:12:33.623Z,60.20
2019-02-20T06:15:05.588Z,43.05
2019-02-20T06:17:36.167Z,50.45
2019-02-20T06:20:09.281Z,49.23
2019-02-20T06:22:39.909Z,44.65
2019-02-20T06:25:10.667Z,47.62
2019-02-20T06:27:41.422Z,38.13
2019-02-20T06:30:12.900Z,38.30
2019-02-20T06:32:43.658Z,42.80
2019-02-20T06:35:14.291Z,41.28
2019-02-20T06:40:15.814Z,36.40
2019-02-20T06:42:46.551Z,36.13
2019-02-20T06:45:17.324Z,41.70
2019-02-20T06:47:48.278Z,39.83
2019-02-20T06:50:19.035Z,46.65
2019-02-20T06:52:49.802Z,45.65
2019-02-20T06:55:20.321Z,38.67
2019-02-20T06:57:51.181Z,42.98
2019-02-20T07:00:21.947Z,35.83
2019-02-20T07:02:52.700Z,35.52
2019-02-20T07:05:37.979Z,36.93
2019-02-20T07:08:29.492Z,35.52
2019-02-20T07:11:18.433Z,32.58
2019-02-20T07:14:08.642Z,34.73
2019-02-20T07:16:45.410Z,28.73
2019-02-20T07:19:21.912Z,34.90
2019-02-20T07:21:58.581Z,27.55
2019-02-20T07:24:41.313Z,30.37
2019-02-20T07:27:26.997Z,31.33
2019-02-20T07:30:02.723Z,29.20
2019-02-20T07:32:33.417Z,33.73
2019-02-20T07:35:05.194Z,30.15
2019-02-20T07:37:35.544Z,21.52
2019-02-20T07:40:07.566Z,12.70
2019-02-20T07:42:39.173Z,16.48
2019-02-20T07:45:10.974Z,14.98
2019-02-20T07:47:41.829Z,19.32
2019-02-20T07:50:13.374Z,18.62
2019-02-20T07:52:43.766Z,15.13
2019-02-20T07:55:14.598Z,18.27
2019-02-20T07:57:46.766Z,17.07
2019-02-20T08:00:17.622Z,13.22
2019-02-20T08:02:48.494Z,17.23
2019-02-20T08:05:19.140Z,17.27
2019-02-20T08:07:49.780Z,21.00
2019-02-20T08:10:20.758Z,16.35
2019-02-20T16:32:09.336Z,28.77
2019-02-20T16:34:39.790Z,27.05
2019-02-20T16:37:10.544Z,32.08
2019-02-20T16:39:41.195Z,32.70
2019-02-20T16:42:12.459Z,29.98
2019-02-20T16:44:43.214Z,29.95
2019-02-20T16:47:13.660Z,25.95
2019-02-20T16:49:44.311Z,39.40
2019-02-20T16:52:15.473Z,58.35
2019-02-20T16:54:46.772Z,55.78
2019-02-20T16:57:17.185Z,62.03
2019-02-20T16:59:48.045Z,51.28
2019-02-20T17:02:18.796Z,49.20
2019-02-20T17:04:49.551Z,46.40
2019-02-20T17:09:51.726Z,47.33
2019-02-20T17:12:22.223Z,50.35
2019-02-20T17:14:53.287Z,44.48
2019-02-20T17:17:23.714Z,40.10
2019-02-20T17:19:54.688Z,43.52
2019-02-20T17:22:25.849Z,36.80
2019-02-20T17:24:56.807Z,38.78
2019-02-20T17:29:57.293Z,44.93
2019-02-20T17:34:57.681Z,76.13
2019-02-20T17:37:29.249Z,60.65
2019-02-20T17:42:29.614Z,66.07
2019-02-20T17:45:00.470Z,55.70
2019-02-20T17:47:31.139Z,59.27
2019-02-20T17:50:02.201Z,59.98
2019-02-20T17:52:33.161Z,79.97
2019-02-20T17:55:04.635Z,79.53
2019-02-20T17:57:36.085Z,72.47
2019-02-20T18:00:09.817Z,78.87
2019-02-20T18:02:40.278Z,76.60
2019-02-20T18:05:11.019Z,82.85
2019-02-20T18:07:48.587Z,74.80
2019-02-20T18:10:14.063Z,83.22
2019-02-20T18:12:44.412Z,80.42
2019-02-20T18:15:15.141Z,89.60
2019-02-20T18:17:45.793Z,93.67
2019-02-20T18:22:46.399Z,106.23
2019-02-20T18:27:46.786Z,119.42
2019-02-20T18:30:17.546Z,92.53
2019-02-20T18:32:48.196Z,83.97
2019-02-20T18:35:19.667Z,74.58
2019-02-20T18:37:50.003Z,81.97
2019-02-20T18:40:20.748Z,82.65
2019-02-20T18:42:51.388Z,89.75
2019-02-20T18:45:22.244Z,86.80
2019-02-20T18:47:53.131Z,95.15
2019-02-20T18:50:23.872Z,90.22
2019-02-20T18:52:54.506Z,93.25
2019-02-20T18:55:25.397Z,91.80
2019-02-20T18:57:56.115Z,103.17
2019-02-20T19:00:26.888Z,101.40
2019-02-20T19:02:59.869Z,97.90
2019-02-20T19:05:29.740Z,98.62
2019-02-20T19:08:00.379Z,102.67
2019-02-20T19:10:42.185Z,102.27
2019-02-20T19:13:24.603Z,103.78
2019-02-20T19:16:04.452Z,97.05
2019-02-20T19:19:02.132Z,102.92
2019-02-20T19:21:42.933Z,104.60
2019-02-20T19:24:22.410Z,128.07
2019-02-20T19:27:14.568Z,113.50
2019-02-20T19:29:51.324Z,112.95
2019-02-20T19:32:46.119Z,130.27
2019-02-20T19:35:34.594Z,123.00
2019-02-20T19:38:30.904Z,125.75
2019-02-20T19:41:17.614Z,142.35
2019-02-20T19:43:57.688Z,133.93
2019-02-20T19:46:40.095Z,130.18
2019-02-20T19:49:19.331Z,138.92
2019-02-20T19:52:05.216Z,144.80
2019-02-20T19:54:53.980Z,151.53
2019-02-20T19:57:39.852Z,162.20
2019-02-20T20:00:36.802Z,157.27
2019-02-20T20:03:13.721Z,155.55
2019-02-20T20:05:56.582Z,145.12
2019-02-20T20:08:42.384Z,146.18
2019-02-20T20:11:33.108Z,170.47
2019-02-20T20:14:18.891Z,163.70
2019-02-20T20:17:09.279Z,161.75
2019-02-20T20:20:01.472Z,170.77
2019-02-20T20:22:46.890Z,173.13
2019-02-20T20:25:24.556Z,164.70
2019-02-20T20:28:10.522Z,154.20
2019-02-20T20:30:49.980Z,152.10
2019-02-20T20:33:49.568Z,167.22
2019-02-20T20:36:38.594Z,216.68
2019-02-20T20:39:12.617Z,155.57
2019-02-20T20:42:01.376Z,143.62
2019-02-20T20:44:51.966Z,150.22
2019-02-20T20:47:48.497Z,150.82
2019-02-20T20:50:51.467Z,137.95
2019-02-20T20:53:41.945Z,138.37
2019-02-20T20:56:45.134Z,140.75
2019-02-20T20:59:24.668Z,138.32
2019-02-20T21:02:10.456Z,131.77
2019-02-20T21:04:59.432Z,145.85
2019-02-20T21:07:41.946Z,134.18
2019-02-20T21:10:18.661Z,147.05
2019-02-20T21:13:26.103Z,170.40
2019-02-20T21:16:22.835Z,229.63
2019-02-20T21:19:08.420Z,156.65
2019-02-20T21:22:03.724Z,158.68
2019-02-20T21:25:11.293Z,158.45
2019-02-20T21:28:02.909Z,183.03
2019-02-20T21:30:51.649Z,143.45
2019-02-20T21:33:43.484Z,148.07
2019-02-20T21:36:23.249Z,165.50
2019-02-20T21:39:13.951Z,188.95
2019-02-20T21:44:38.660Z,166.70
2019-02-20T21:47:30.693Z,162.50
2019-02-20T21:50:10.751Z,142.57
2019-02-20T21:52:51.187Z,143.40
2019-02-20T21:55:43.073Z,129.18
2019-02-20T21:58:41.309Z,134.37
2019-02-20T22:01:27.028Z,128.60
2019-02-20T22:04:21.868Z,122.25
2019-02-20T22:07:10.641Z,125.70
2019-02-20T22:10:01.525Z,128.68
2019-02-20T22:12:50.998Z,124.38
2019-02-20T22:15:40.565Z,129.80
2019-02-20T22:18:32.713Z,131.05
2019-02-20T22:21:32.205Z,143.15
2019-02-20T22:24:08.483Z,132.10
2019-02-20T22:26:57.238Z,146.93
2019-02-20T22:29:49.728Z,130.37
2019-02-20T22:32:20.513Z,143.43
2019-02-20T22:35:03.129Z,144.17
2019-02-20T22:37:48.921Z,152.02
2019-02-20T22:40:43.729Z,138.80
2019-02-20T22:43:29.820Z,146.35
2019-02-20T22:46:03.625Z,139.55
2019-02-20T22:48:53.932Z,146.87
2019-02-20T22:51:39.104Z,131.05
2019-02-20T22:54:18.859Z,142.00
2019-02-20T22:57:10.572Z,146.37
2019-02-20T22:59:47.061Z,147.93
2019-02-20T23:02:23.745Z,147.80
2019-02-20T23:04:57.842Z,146.70
2019-02-20T23:07:31.597Z,154.45
2019-02-20T23:10:25.243Z,156.25
2019-02-20T23:13:17.184Z,152.47
2019-02-20T23:15:48.039Z,150.57
2019-02-20T23:18:18.679Z,135.68
2019-02-20T23:23:19.177Z,138.23
2019-02-20T23:25:49.930Z,138.80
2019-02-20T23:28:20.580Z,141.45
2019-02-20T23:30:51.439Z,136.47
2019-02-20T23:33:22.178Z,143.55
2019-02-20T23:35:52.828Z,136.88
2019-02-20T23:40:54.335Z,141.73
2019-02-20T23:43:25.309Z,128.50
2019-02-20T23:45:55.959Z,117.67
2019-02-20T23:48:26.611Z,134.60
2019-02-20T23:50:57.470Z,134.75
2019-02-20T23:53:28.239Z,130.37
2019-02-20T23:55:58.976Z,134.22
2019-02-20T23:58:29.629Z,123.50
